sensor_id;sensor_type;location;lat;lon;timestamp;P1;durP1;ratioP1;P2;durP2;ratioP2
4835;SDS011;66719;51.226;6.902;2023-04-16T00:01:00;46.77;;;28.73;;
4835;SDS011;66719;51.226;6.902;2023-04-16T00:03:27;53.80;;;28.47;;
4835;SDS011;66719;51.226;6.902;2023-04-16T00:05:54;53.10;;;28.60;;
4835;SDS011;66719;51.226;6.902;2023-04-16T00:08:24;48.07;;;27.57;;
4835;SDS011;66719;51.226;6.902;2023-04-16T00:10:51;49.53;;;30.27;;
4835;SDS011;66719;51.226;6.902;2023-04-16T00:13:18;55.87;;;30.17;;
4835;SDS011;66719;51.226;6.902;2023-04-16T00:15:45;56.17;;;29.60;;
4835;SDS011;66719;51.226;6.902;2023-04-16T00:18:11;58.50;;;31.47;;
4835;SDS011;66719;51.226;6.902;2023-04-16T00:20:38;63.33;;;31.60;;
4835;SDS011;66719;51.226;6.902;2023-04-16T00:23:04;52.57;;;30.70;;
4835;SDS011;66719;51.226;6.902;2023-04-16T00:25:31;58.47;;;31.87;;
4835;SDS011;66719;51.226;6.902;2023-04-16T00:27:57;58.17;;;30.57;;
4835;SDS011;66719;51.226;6.902;2023-04-16T00:30:24;65.70;;;31.93;;
4835;SDS011;66719;51.226;6.902;2023-04-16T00:32:50;54.80;;;30.40;;
4835;SDS011;66719;51.226;6.902;2023-04-16T00:35:17;55.43;;;31.70;;
4835;SDS011;66719;51.226;6.902;2023-04-16T00:37:43;60.83;;;34.17;;
4835;SDS011;66719;51.226;6.902;2023-04-16T00:40:10;54.00;;;33.70;;
4835;SDS011;66719;51.226;6.902;2023-04-16T00:42:37;54.23;;;31.00;;
4835;SDS011;66719;51.226;6.902;2023-04-16T00:45:04;57.97;;;31.00;;
4835;SDS011;66719;51.226;6.902;2023-04-16T00:47:30;60.97;;;31.50;;
4835;SDS011;66719;51.226;6.902;2023-04-16T00:49:57;56.70;;;29.97;;
4835;SDS011;66719;51.226;6.902;2023-04-16T00:52:24;49.50;;;29.27;;
4835;SDS011;66719;51.226;6.902;2023-04-16T00:54:51;52.63;;;30.20;;
4835;SDS011;66719;51.226;6.902;2023-04-16T00:57:19;63.33;;;31.43;;
4835;SDS011;66719;51.226;6.902;2023-04-16T00:59:48;61.10;;;32.13;;
4835;SDS011;66719;51.226;6.902;2023-04-16T01:02:16;57.23;;;32.30;;
4835;SDS011;66719;51.226;6.902;2023-04-16T01:04:43;63.90;;;32.97;;
4835;SDS011;66719;51.226;6.902;2023-04-16T01:07:09;60.37;;;31.73;;
4835;SDS011;66719;51.226;6.902;2023-04-16T01:09:36;64.00;;;32.90;;
4835;SDS011;66719;51.226;6.902;2023-04-16T01:12:02;70.77;;;34.50;;
4835;SDS011;66719;51.226;6.902;2023-04-16T01:14:29;60.17;;;32.03;;
4835;SDS011;66719;51.226;6.902;2023-04-16T01:17:01;55.13;;;31.80;;
4835;SDS011;66719;51.226;6.902;2023-04-16T01:19:29;65.87;;;33.67;;
4835;SDS011;66719;51.226;6.902;2023-04-16T01:22:01;62.90;;;34.50;;
4835;SDS011;66719;51.226;6.902;2023-04-16T01:24:28;62.40;;;33.00;;
4835;SDS011;66719;51.226;6.902;2023-04-16T01:26:58;58.30;;;32.77;;
4835;SDS011;66719;51.226;6.902;2023-04-16T01:29:25;63.87;;;35.30;;
4835;SDS011;66719;51.226;6.902;2023-04-16T01:31:52;68.23;;;32.77;;
4835;SDS011;66719;51.226;6.902;2023-04-16T01:34:19;61.57;;;32.67;;
4835;SDS011;66719;51.226;6.902;2023-04-16T01:36:46;62.10;;;30.30;;
4835;SDS011;66719;51.226;6.902;2023-04-16T01:39:12;61.83;;;33.10;;
4835;SDS011;66719;51.226;6.902;2023-04-16T01:41:41;61.23;;;29.97;;
4835;SDS011;66719;51.226;6.902;2023-04-16T01:44:08;53.93;;;30.00;;
4835;SDS011;66719;51.226;6.902;2023-04-16T01:46:35;48.50;;;28.10;;
4835;SDS011;66719;51.226;6.902;2023-04-16T01:49:03;52.73;;;28.03;;
4835;SDS011;66719;51.226;6.902;2023-04-16T01:51:30;53.10;;;28.63;;
4835;SDS011;66719;51.226;6.902;2023-04-16T01:53:57;60.37;;;27.20;;
4835;SDS011;66719;51.226;6.902;2023-04-16T01:56:24;52.73;;;26.23;;
4835;SDS011;66719;51.226;6.902;2023-04-16T01:58:51;50.70;;;26.13;;
4835;SDS011;66719;51.226;6.902;2023-04-16T02:01:18;46.17;;;26.70;;
4835;SDS011;66719;51.226;6.902;2023-04-16T02:03:45;43.30;;;24.87;;
4835;SDS011;66719;51.226;6.902;2023-04-16T02:06:12;50.40;;;27.17;;
4835;SDS011;66719;51.226;6.902;2023-04-16T02:08:39;54.10;;;26.47;;
4835;SDS011;66719;51.226;6.902;2023-04-16T02:11:06;55.60;;;28.20;;
4835;SDS011;66719;51.226;6.902;2023-04-16T02:13:33;63.47;;;28.93;;
4835;SDS011;66719;51.226;6.902;2023-04-16T02:15:59;64.53;;;30.13;;
4835;SDS011;66719;51.226;6.902;2023-04-16T02:18:27;64.77;;;31.87;;
4835;SDS011;66719;51.226;6.902;2023-04-16T02:20:56;60.87;;;31.70;;
4835;SDS011;66719;51.226;6.902;2023-04-16T02:23:23;67.50;;;31.07;;
4835;SDS011;66719;51.226;6.902;2023-04-16T02:25:50;65.47;;;31.03;;
4835;SDS011;66719;51.226;6.902;2023-04-16T02:28:16;63.10;;;31.87;;
4835;SDS011;66719;51.226;6.902;2023-04-16T02:30:43;67.33;;;33.27;;
4835;SDS011;66719;51.226;6.902;2023-04-16T02:33:10;74.33;;;33.00;;
4835;SDS011;66719;51.226;6.902;2023-04-16T02:35:37;79.50;;;35.60;;
4835;SDS011;66719;51.226;6.902;2023-04-16T02:38:05;72.53;;;34.30;;
4835;SDS011;66719;51.226;6.902;2023-04-16T02:40:32;67.77;;;34.83;;
4835;SDS011;66719;51.226;6.902;2023-04-16T02:42:59;69.10;;;36.83;;
4835;SDS011;66719;51.226;6.902;2023-04-16T02:45:25;70.50;;;34.90;;
4835;SDS011;66719;51.226;6.902;2023-04-16T02:47:52;71.97;;;34.77;;
4835;SDS011;66719;51.226;6.902;2023-04-16T02:50:19;74.60;;;36.90;;
4835;SDS011;66719;51.226;6.902;2023-04-16T02:52:45;75.17;;;38.77;;
4835;SDS011;66719;51.226;6.902;2023-04-16T02:55:12;71.03;;;38.73;;
4835;SDS011;66719;51.226;6.902;2023-04-16T02:57:38;74.30;;;36.80;;
4835;SDS011;66719;51.226;6.902;2023-04-16T03:00:06;72.47;;;37.37;;
4835;SDS011;66719;51.226;6.902;2023-04-16T03:02:34;73.70;;;39.20;;
4835;SDS011;66719;51.226;6.902;2023-04-16T03:05:01;83.03;;;40.17;;
4835;SDS011;66719;51.226;6.902;2023-04-16T03:07:28;70.07;;;39.50;;
4835;SDS011;66719;51.226;6.902;2023-04-16T03:09:54;82.27;;;39.70;;
4835;SDS011;66719;51.226;6.902;2023-04-16T03:12:21;71.47;;;39.40;;
4835;SDS011;66719;51.226;6.902;2023-04-16T03:14:49;74.90;;;39.37;;
4835;SDS011;66719;51.226;6.902;2023-04-16T03:17:16;72.50;;;38.03;;
4835;SDS011;66719;51.226;6.902;2023-04-16T03:19:43;73.57;;;37.83;;
4835;SDS011;66719;51.226;6.902;2023-04-16T03:22:09;73.80;;;38.10;;
4835;SDS011;66719;51.226;6.902;2023-04-16T03:24:35;74.27;;;38.40;;
4835;SDS011;66719;51.226;6.902;2023-04-16T03:27:03;78.57;;;38.63;;
4835;SDS011;66719;51.226;6.902;2023-04-16T03:29:29;69.53;;;36.20;;
4835;SDS011;66719;51.226;6.902;2023-04-16T03:31:56;85.63;;;41.30;;
4835;SDS011;66719;51.226;6.902;2023-04-16T03:34:22;77.67;;;40.00;;
4835;SDS011;66719;51.226;6.902;2023-04-16T03:36:49;80.83;;;41.23;;
4835;SDS011;66719;51.226;6.902;2023-04-16T03:39:15;87.93;;;41.20;;
4835;SDS011;66719;51.226;6.902;2023-04-16T03:41:42;76.87;;;40.57;;
4835;SDS011;66719;51.226;6.902;2023-04-16T03:44:08;81.80;;;39.20;;
4835;SDS011;66719;51.226;6.902;2023-04-16T03:46:34;78.43;;;39.20;;
4835;SDS011;66719;51.226;6.902;2023-04-16T03:49:01;70.37;;;37.40;;
4835;SDS011;66719;51.226;6.902;2023-04-16T03:51:28;69.97;;;36.90;;
4835;SDS011;66719;51.226;6.902;2023-04-16T03:53:54;74.40;;;35.53;;
4835;SDS011;66719;51.226;6.902;2023-04-16T03:56:21;69.47;;;34.53;;
4835;SDS011;66719;51.226;6.902;2023-04-16T03:58:47;70.20;;;34.67;;
4835;SDS011;66719;51.226;6.902;2023-04-16T04:01:14;78.60;;;37.00;;
4835;SDS011;66719;51.226;6.902;2023-04-16T04:03:40;67.87;;;35.47;;
4835;SDS011;66719;51.226;6.902;2023-04-16T04:06:07;72.17;;;36.97;;
4835;SDS011;66719;51.226;6.902;2023-04-16T04:08:34;73.03;;;37.30;;
4835;SDS011;66719;51.226;6.902;2023-04-16T04:11:00;65.37;;;34.27;;
4835;SDS011;66719;51.226;6.902;2023-04-16T04:13:27;65.97;;;35.90;;
4835;SDS011;66719;51.226;6.902;2023-04-16T04:15:53;66.50;;;35.03;;
4835;SDS011;66719;51.226;6.902;2023-04-16T04:18:20;63.37;;;35.20;;
4835;SDS011;66719;51.226;6.902;2023-04-16T04:20:46;68.33;;;34.30;;
4835;SDS011;66719;51.226;6.902;2023-04-16T04:23:13;70.93;;;34.87;;
4835;SDS011;66719;51.226;6.902;2023-04-16T04:25:39;71.00;;;34.67;;
4835;SDS011;66719;51.226;6.902;2023-04-16T04:28:06;66.70;;;34.10;;
4835;SDS011;66719;51.226;6.902;2023-04-16T04:30:33;63.20;;;34.57;;
4835;SDS011;66719;51.226;6.902;2023-04-16T04:33:00;66.97;;;34.53;;
4835;SDS011;66719;51.226;6.902;2023-04-16T04:35:27;68.47;;;36.27;;
4835;SDS011;66719;51.226;6.902;2023-04-16T04:37:54;60.90;;;33.20;;
4835;SDS011;66719;51.226;6.902;2023-04-16T04:40:20;74.37;;;36.60;;
4835;SDS011;66719;51.226;6.902;2023-04-16T04:42:47;68.50;;;34.43;;
4835;SDS011;66719;51.226;6.902;2023-04-16T04:45:14;74.03;;;37.30;;
4835;SDS011;66719;51.226;6.902;2023-04-16T04:47:41;71.90;;;36.03;;
4835;SDS011;66719;51.226;6.902;2023-04-16T04:50:07;71.17;;;35.30;;
4835;SDS011;66719;51.226;6.902;2023-04-16T04:52:34;67.50;;;36.13;;
4835;SDS011;66719;51.226;6.902;2023-04-16T04:55:01;72.93;;;36.57;;
4835;SDS011;66719;51.226;6.902;2023-04-16T04:57:27;78.27;;;37.00;;
4835;SDS011;66719;51.226;6.902;2023-04-16T04:59:54;70.33;;;37.30;;
4835;SDS011;66719;51.226;6.902;2023-04-16T05:02:20;74.80;;;37.50;;
4835;SDS011;66719;51.226;6.902;2023-04-16T05:04:47;69.77;;;36.83;;
4835;SDS011;66719;51.226;6.902;2023-04-16T05:07:13;68.10;;;37.17;;
4835;SDS011;66719;51.226;6.902;2023-04-16T05:09:40;78.80;;;39.23;;
4835;SDS011;66719;51.226;6.902;2023-04-16T05:12:06;76.13;;;38.57;;
4835;SDS011;66719;51.226;6.902;2023-04-16T05:14:33;72.90;;;37.63;;
4835;SDS011;66719;51.226;6.902;2023-04-16T05:17:01;75.27;;;36.60;;
4835;SDS011;66719;51.226;6.902;2023-04-16T05:19:28;73.83;;;37.10;;
4835;SDS011;66719;51.226;6.902;2023-04-16T05:21:54;74.37;;;38.03;;
4835;SDS011;66719;51.226;6.902;2023-04-16T05:24:21;67.60;;;33.90;;
4835;SDS011;66719;51.226;6.902;2023-04-16T05:26:48;70.13;;;33.63;;
4835;SDS011;66719;51.226;6.902;2023-04-16T05:29:14;64.57;;;33.90;;
4835;SDS011;66719;51.226;6.902;2023-04-16T05:31:41;69.80;;;33.10;;
4835;SDS011;66719;51.226;6.902;2023-04-16T05:34:07;63.00;;;32.40;;
4835;SDS011;66719;51.226;6.902;2023-04-16T05:36:34;60.93;;;31.47;;
4835;SDS011;66719;51.226;6.902;2023-04-16T05:39:00;59.27;;;31.20;;
4835;SDS011;66719;51.226;6.902;2023-04-16T05:41:27;56.60;;;29.90;;
4835;SDS011;66719;51.226;6.902;2023-04-16T05:43:53;58.90;;;29.40;;
4835;SDS011;66719;51.226;6.902;2023-04-16T05:46:20;55.23;;;28.27;;
4835;SDS011;66719;51.226;6.902;2023-04-16T05:48:46;57.67;;;28.67;;
4835;SDS011;66719;51.226;6.902;2023-04-16T05:51:13;54.53;;;26.27;;
4835;SDS011;66719;51.226;6.902;2023-04-16T05:53:39;55.07;;;26.67;;
4835;SDS011;66719;51.226;6.902;2023-04-16T05:56:06;61.20;;;27.67;;
4835;SDS011;66719;51.226;6.902;2023-04-16T05:58:33;55.47;;;27.40;;
4835;SDS011;66719;51.226;6.902;2023-04-16T06:00:59;61.17;;;25.53;;
4835;SDS011;66719;51.226;6.902;2023-04-16T06:03:26;48.90;;;24.67;;
4835;SDS011;66719;51.226;6.902;2023-04-16T06:05:53;51.40;;;25.43;;
4835;SDS011;66719;51.226;6.902;2023-04-16T06:08:19;44.87;;;24.53;;
4835;SDS011;66719;51.226;6.902;2023-04-16T06:10:46;53.33;;;24.50;;
4835;SDS011;66719;51.226;6.902;2023-04-16T06:13:13;51.47;;;24.57;;
4835;SDS011;66719;51.226;6.902;2023-04-16T06:15:39;45.67;;;22.67;;
4835;SDS011;66719;51.226;6.902;2023-04-16T06:18:06;52.43;;;23.27;;
4835;SDS011;66719;51.226;6.902;2023-04-16T06:20:32;46.23;;;23.90;;
4835;SDS011;66719;51.226;6.902;2023-04-16T06:22:59;44.10;;;22.90;;
4835;SDS011;66719;51.226;6.902;2023-04-16T06:25:26;43.23;;;23.20;;
4835;SDS011;66719;51.226;6.902;2023-04-16T06:27:52;48.27;;;21.23;;
4835;SDS011;66719;51.226;6.902;2023-04-16T06:30:19;45.50;;;22.40;;
4835;SDS011;66719;51.226;6.902;2023-04-16T06:32:45;47.60;;;23.57;;
4835;SDS011;66719;51.226;6.902;2023-04-16T06:35:13;46.80;;;22.73;;
4835;SDS011;66719;51.226;6.902;2023-04-16T06:37:39;47.03;;;25.10;;
4835;SDS011;66719;51.226;6.902;2023-04-16T06:40:06;48.30;;;24.47;;
4835;SDS011;66719;51.226;6.902;2023-04-16T06:42:33;51.27;;;25.37;;
4835;SDS011;66719;51.226;6.902;2023-04-16T06:45:00;46.70;;;25.23;;
4835;SDS011;66719;51.226;6.902;2023-04-16T06:47:26;50.63;;;25.03;;
4835;SDS011;66719;51.226;6.902;2023-04-16T06:49:53;49.37;;;25.67;;
4835;SDS011;66719;51.226;6.902;2023-04-16T06:52:19;51.47;;;24.57;;
4835;SDS011;66719;51.226;6.902;2023-04-16T06:54:46;51.33;;;27.07;;
4835;SDS011;66719;51.226;6.902;2023-04-16T06:57:13;49.33;;;24.00;;
4835;SDS011;66719;51.226;6.902;2023-04-16T06:59:40;45.67;;;22.97;;
4835;SDS011;66719;51.226;6.902;2023-04-16T07:02:07;42.13;;;23.90;;
4835;SDS011;66719;51.226;6.902;2023-04-16T07:04:35;43.37;;;23.40;;
4835;SDS011;66719;51.226;6.902;2023-04-16T07:07:02;52.47;;;24.10;;
4835;SDS011;66719;51.226;6.902;2023-04-16T07:09:29;39.47;;;22.07;;
4835;SDS011;66719;51.226;6.902;2023-04-16T07:11:55;48.20;;;23.73;;
4835;SDS011;66719;51.226;6.902;2023-04-16T07:14:22;44.80;;;22.60;;
4835;SDS011;66719;51.226;6.902;2023-04-16T07:16:48;44.17;;;22.40;;
4835;SDS011;66719;51.226;6.902;2023-04-16T07:19:15;45.00;;;19.83;;
4835;SDS011;66719;51.226;6.902;2023-04-16T07:21:42;41.40;;;22.43;;
4835;SDS011;66719;51.226;6.902;2023-04-16T07:24:09;39.03;;;22.60;;
4835;SDS011;66719;51.226;6.902;2023-04-16T07:26:39;41.73;;;21.77;;
4835;SDS011;66719;51.226;6.902;2023-04-16T07:29:06;42.67;;;22.60;;
4835;SDS011;66719;51.226;6.902;2023-04-16T07:31:32;43.00;;;22.80;;
4835;SDS011;66719;51.226;6.902;2023-04-16T07:33:59;42.90;;;22.20;;
4835;SDS011;66719;51.226;6.902;2023-04-16T07:36:25;39.93;;;21.70;;
4835;SDS011;66719;51.226;6.902;2023-04-16T07:38:53;43.47;;;21.60;;
4835;SDS011;66719;51.226;6.902;2023-04-16T07:41:19;40.60;;;21.57;;
4835;SDS011;66719;51.226;6.902;2023-04-16T07:43:46;42.50;;;22.00;;
4835;SDS011;66719;51.226;6.902;2023-04-16T07:46:12;46.97;;;23.67;;
4835;SDS011;66719;51.226;6.902;2023-04-16T07:48:39;43.03;;;23.53;;
4835;SDS011;66719;51.226;6.902;2023-04-16T07:51:06;39.73;;;21.87;;
4835;SDS011;66719;51.226;6.902;2023-04-16T07:53:33;42.10;;;23.57;;
4835;SDS011;66719;51.226;6.902;2023-04-16T07:55:59;41.80;;;23.10;;
4835;SDS011;66719;51.226;6.902;2023-04-16T07:58:25;44.63;;;23.20;;
4835;SDS011;66719;51.226;6.902;2023-04-16T08:00:52;39.90;;;23.23;;
4835;SDS011;66719;51.226;6.902;2023-04-16T08:03:19;46.83;;;22.10;;
4835;SDS011;66719;51.226;6.902;2023-04-16T08:05:45;42.87;;;23.17;;
4835;SDS011;66719;51.226;6.902;2023-04-16T08:08:12;45.70;;;23.33;;
4835;SDS011;66719;51.226;6.902;2023-04-16T08:10:38;43.77;;;24.37;;
4835;SDS011;66719;51.226;6.902;2023-04-16T08:13:05;41.13;;;23.60;;
4835;SDS011;66719;51.226;6.902;2023-04-16T08:15:32;42.50;;;24.50;;
4835;SDS011;66719;51.226;6.902;2023-04-16T08:17:58;47.53;;;23.50;;
4835;SDS011;66719;51.226;6.902;2023-04-16T08:20:25;45.70;;;24.77;;
4835;SDS011;66719;51.226;6.902;2023-04-16T08:22:55;42.10;;;23.90;;
4835;SDS011;66719;51.226;6.902;2023-04-16T08:25:21;45.40;;;24.20;;
4835;SDS011;66719;51.226;6.902;2023-04-16T08:27:49;43.30;;;23.10;;
4835;SDS011;66719;51.226;6.902;2023-04-16T08:30:16;42.13;;;23.33;;
4835;SDS011;66719;51.226;6.902;2023-04-16T08:32:42;36.80;;;20.57;;
4835;SDS011;66719;51.226;6.902;2023-04-16T08:35:09;44.50;;;23.30;;
4835;SDS011;66719;51.226;6.902;2023-04-16T08:37:36;40.53;;;22.23;;
4835;SDS011;66719;51.226;6.902;2023-04-16T08:40:02;41.20;;;22.77;;
4835;SDS011;66719;51.226;6.902;2023-04-16T08:42:31;40.97;;;22.63;;
4835;SDS011;66719;51.226;6.902;2023-04-16T08:47:34;46.33;;;23.50;;
4835;SDS011;66719;51.226;6.902;2023-04-16T08:50:02;40.27;;;22.07;;
4835;SDS011;66719;51.226;6.902;2023-04-16T08:52:30;42.50;;;23.50;;
4835;SDS011;66719;51.226;6.902;2023-04-16T08:55:05;39.83;;;22.20;;
4835;SDS011;66719;51.226;6.902;2023-04-16T08:57:38;41.00;;;21.67;;
4835;SDS011;66719;51.226;6.902;2023-04-16T09:00:09;40.43;;;23.43;;
4835;SDS011;66719;51.226;6.902;2023-04-16T09:02:37;36.20;;;21.37;;
4835;SDS011;66719;51.226;6.902;2023-04-16T09:05:04;37.90;;;22.23;;
4835;SDS011;66719;51.226;6.902;2023-04-16T09:07:33;36.10;;;21.23;;
4835;SDS011;66719;51.226;6.902;2023-04-16T09:10:00;35.60;;;21.60;;
4835;SDS011;66719;51.226;6.902;2023-04-16T09:12:29;50.93;;;23.40;;
4835;SDS011;66719;51.226;6.902;2023-04-16T09:14:55;35.53;;;21.00;;
4835;SDS011;66719;51.226;6.902;2023-04-16T09:17:24;38.43;;;22.97;;
4835;SDS011;66719;51.226;6.902;2023-04-16T09:19:52;35.77;;;20.80;;
4835;SDS011;66719;51.226;6.902;2023-04-16T09:22:20;42.40;;;21.50;;
4835;SDS011;66719;51.226;6.902;2023-04-16T09:24:46;41.97;;;23.30;;
4835;SDS011;66719;51.226;6.902;2023-04-16T09:27:13;37.47;;;21.80;;
4835;SDS011;66719;51.226;6.902;2023-04-16T09:29:39;37.20;;;20.63;;
4835;SDS011;66719;51.226;6.902;2023-04-16T09:32:07;36.90;;;21.33;;
4835;SDS011;66719;51.226;6.902;2023-04-16T09:34:52;44.10;;;22.70;;
4835;SDS011;66719;51.226;6.902;2023-04-16T09:37:20;37.07;;;19.47;;
4835;SDS011;66719;51.226;6.902;2023-04-16T09:40:00;37.13;;;20.60;;
4835;SDS011;66719;51.226;6.902;2023-04-16T09:42:28;34.80;;;21.20;;
4835;SDS011;66719;51.226;6.902;2023-04-16T09:44:57;42.07;;;22.00;;
4835;SDS011;66719;51.226;6.902;2023-04-16T09:47:38;39.63;;;20.97;;
4835;SDS011;66719;51.226;6.902;2023-04-16T09:50:06;35.87;;;21.70;;
4835;SDS011;66719;51.226;6.902;2023-04-16T09:52:38;38.70;;;20.63;;
4835;SDS011;66719;51.226;6.902;2023-04-16T09:55:05;37.47;;;21.77;;
4835;SDS011;66719;51.226;6.902;2023-04-16T09:57:32;35.73;;;20.10;;
4835;SDS011;66719;51.226;6.902;2023-04-16T10:00:02;39.93;;;20.53;;
4835;SDS011;66719;51.226;6.902;2023-04-16T10:02:40;41.80;;;21.93;;
4835;SDS011;66719;51.226;6.902;2023-04-16T10:05:08;35.17;;;20.17;;
4835;SDS011;66719;51.226;6.902;2023-04-16T10:07:35;39.00;;;21.70;;
4835;SDS011;66719;51.226;6.902;2023-04-16T10:10:02;34.00;;;20.27;;
4835;SDS011;66719;51.226;6.902;2023-04-16T10:12:30;34.63;;;20.80;;
4835;SDS011;66719;51.226;6.902;2023-04-16T10:14:58;37.00;;;21.40;;
4835;SDS011;66719;51.226;6.902;2023-04-16T10:17:24;41.23;;;21.70;;
4835;SDS011;66719;51.226;6.902;2023-04-16T10:19:52;34.30;;;21.43;;
4835;SDS011;66719;51.226;6.902;2023-04-16T10:22:19;34.77;;;21.97;;
4835;SDS011;66719;51.226;6.902;2023-04-16T10:24:47;36.90;;;20.23;;
4835;SDS011;66719;51.226;6.902;2023-04-16T10:27:15;31.70;;;18.63;;
4835;SDS011;66719;51.226;6.902;2023-04-16T10:29:42;42.00;;;19.70;;
4835;SDS011;66719;51.226;6.902;2023-04-16T10:32:10;34.80;;;20.60;;
4835;SDS011;66719;51.226;6.902;2023-04-16T10:34:37;39.60;;;21.10;;
4835;SDS011;66719;51.226;6.902;2023-04-16T10:37:04;35.40;;;21.13;;
4835;SDS011;66719;51.226;6.902;2023-04-16T10:39:30;42.83;;;23.37;;
4835;SDS011;66719;51.226;6.902;2023-04-16T10:42:06;39.00;;;22.60;;
4835;SDS011;66719;51.226;6.902;2023-04-16T10:44:34;35.10;;;22.03;;
4835;SDS011;66719;51.226;6.902;2023-04-16T10:47:01;37.53;;;20.27;;
4835;SDS011;66719;51.226;6.902;2023-04-16T10:49:28;38.30;;;20.30;;
4835;SDS011;66719;51.226;6.902;2023-04-16T10:52:10;31.43;;;18.83;;
4835;SDS011;66719;51.226;6.902;2023-04-16T10:54:38;33.80;;;19.30;;
4835;SDS011;66719;51.226;6.902;2023-04-16T10:57:09;31.80;;;18.03;;
4835;SDS011;66719;51.226;6.902;2023-04-16T10:59:41;33.70;;;18.33;;
4835;SDS011;66719;51.226;6.902;2023-04-16T11:02:12;33.90;;;20.00;;
4835;SDS011;66719;51.226;6.902;2023-04-16T11:04:44;31.03;;;18.30;;
4835;SDS011;66719;51.226;6.902;2023-04-16T11:12:25;32.53;;;18.77;;
4835;SDS011;66719;51.226;6.902;2023-04-16T11:14:58;33.13;;;19.97;;
4835;SDS011;66719;51.226;6.902;2023-04-16T11:17:30;29.80;;;18.20;;
4835;SDS011;66719;51.226;6.902;2023-04-16T11:20:02;31.43;;;19.67;;
4835;SDS011;66719;51.226;6.902;2023-04-16T11:22:44;31.77;;;19.53;;
4835;SDS011;66719;51.226;6.902;2023-04-16T11:25:11;29.87;;;18.17;;
4835;SDS011;66719;51.226;6.902;2023-04-16T11:27:38;29.70;;;19.30;;
4835;SDS011;66719;51.226;6.902;2023-04-16T11:30:06;31.23;;;17.80;;
4835;SDS011;66719;51.226;6.902;2023-04-16T11:32:35;30.37;;;18.70;;
4835;SDS011;66719;51.226;6.902;2023-04-16T11:35:06;30.47;;;18.67;;
4835;SDS011;66719;51.226;6.902;2023-04-16T11:37:44;28.57;;;17.10;;
4835;SDS011;66719;51.226;6.902;2023-04-16T11:40:11;26.63;;;16.80;;
4835;SDS011;66719;51.226;6.902;2023-04-16T11:42:39;28.03;;;17.23;;
4835;SDS011;66719;51.226;6.902;2023-04-16T11:45:07;26.80;;;16.90;;
4835;SDS011;66719;51.226;6.902;2023-04-16T11:50:16;25.50;;;16.17;;
4835;SDS011;66719;51.226;6.902;2023-04-16T11:52:44;26.17;;;16.27;;
4835;SDS011;66719;51.226;6.902;2023-04-16T11:55:12;25.80;;;16.27;;
4835;SDS011;66719;51.226;6.902;2023-04-16T11:57:38;27.73;;;16.77;;
4835;SDS011;66719;51.226;6.902;2023-04-16T12:00:05;26.30;;;17.73;;
4835;SDS011;66719;51.226;6.902;2023-04-16T12:02:39;27.43;;;17.20;;
4835;SDS011;66719;51.226;6.902;2023-04-16T12:07:58;27.00;;;17.67;;
4835;SDS011;66719;51.226;6.902;2023-04-16T12:10:26;25.43;;;15.70;;
4835;SDS011;66719;51.226;6.902;2023-04-16T12:12:53;30.13;;;16.47;;
4835;SDS011;66719;51.226;6.902;2023-04-16T12:15:21;23.20;;;14.47;;
4835;SDS011;66719;51.226;6.902;2023-04-16T12:17:47;22.37;;;13.47;;
4835;SDS011;66719;51.226;6.902;2023-04-16T12:20:15;20.53;;;12.77;;
4835;SDS011;66719;51.226;6.902;2023-04-16T12:22:46;22.67;;;13.03;;
4835;SDS011;66719;51.226;6.902;2023-04-16T12:25:15;24.03;;;13.27;;
4835;SDS011;66719;51.226;6.902;2023-04-16T12:27:50;26.80;;;15.87;;
4835;SDS011;66719;51.226;6.902;2023-04-16T12:30:19;22.77;;;13.40;;
4835;SDS011;66719;51.226;6.902;2023-04-16T12:32:48;25.00;;;13.20;;
4835;SDS011;66719;51.226;6.902;2023-04-16T12:35:29;24.53;;;15.23;;
4835;SDS011;66719;51.226;6.902;2023-04-16T12:37:56;25.40;;;15.20;;
4835;SDS011;66719;51.226;6.902;2023-04-16T12:40:23;25.53;;;15.00;;
4835;SDS011;66719;51.226;6.902;2023-04-16T12:42:49;23.60;;;13.53;;
4835;SDS011;66719;51.226;6.902;2023-04-16T12:45:16;23.40;;;14.00;;
4835;SDS011;66719;51.226;6.902;2023-04-16T12:47:42;23.27;;;13.57;;
4835;SDS011;66719;51.226;6.902;2023-04-16T12:50:09;22.90;;;13.37;;
4835;SDS011;66719;51.226;6.902;2023-04-16T12:52:36;22.30;;;13.57;;
4835;SDS011;66719;51.226;6.902;2023-04-16T12:55:02;23.70;;;13.60;;
4835;SDS011;66719;51.226;6.902;2023-04-16T12:57:29;24.20;;;12.90;;
4835;SDS011;66719;51.226;6.902;2023-04-16T12:59:56;22.47;;;13.40;;
4835;SDS011;66719;51.226;6.902;2023-04-16T13:02:23;21.97;;;13.20;;
4835;SDS011;66719;51.226;6.902;2023-04-16T13:04:51;23.07;;;14.00;;
4835;SDS011;66719;51.226;6.902;2023-04-16T13:07:18;23.93;;;15.03;;
4835;SDS011;66719;51.226;6.902;2023-04-16T13:09:45;23.63;;;12.90;;
4835;SDS011;66719;51.226;6.902;2023-04-16T13:12:11;21.70;;;12.80;;
4835;SDS011;66719;51.226;6.902;2023-04-16T13:14:38;22.60;;;13.57;;
4835;SDS011;66719;51.226;6.902;2023-04-16T13:17:04;22.87;;;13.23;;
4835;SDS011;66719;51.226;6.902;2023-04-16T13:19:31;22.63;;;12.83;;
4835;SDS011;66719;51.226;6.902;2023-04-16T13:21:57;24.90;;;12.40;;
4835;SDS011;66719;51.226;6.902;2023-04-16T13:24:24;25.57;;;13.90;;
4835;SDS011;66719;51.226;6.902;2023-04-16T13:26:50;25.10;;;13.57;;
4835;SDS011;66719;51.226;6.902;2023-04-16T13:29:18;23.70;;;13.00;;
4835;SDS011;66719;51.226;6.902;2023-04-16T13:31:45;23.63;;;12.83;;
4835;SDS011;66719;51.226;6.902;2023-04-16T13:34:12;21.30;;;12.83;;
4835;SDS011;66719;51.226;6.902;2023-04-16T13:36:38;23.53;;;12.57;;
4835;SDS011;66719;51.226;6.902;2023-04-16T13:39:05;21.30;;;12.70;;
4835;SDS011;66719;51.226;6.902;2023-04-16T13:41:36;22.33;;;12.63;;
4835;SDS011;66719;51.226;6.902;2023-04-16T13:44:03;21.70;;;12.43;;
4835;SDS011;66719;51.226;6.902;2023-04-16T13:46:30;19.93;;;11.93;;
4835;SDS011;66719;51.226;6.902;2023-04-16T13:48:57;24.17;;;13.57;;
4835;SDS011;66719;51.226;6.902;2023-04-16T13:51:24;21.77;;;12.70;;
4835;SDS011;66719;51.226;6.902;2023-04-16T13:53:50;21.33;;;11.90;;
4835;SDS011;66719;51.226;6.902;2023-04-16T13:56:16;20.67;;;12.10;;
4835;SDS011;66719;51.226;6.902;2023-04-16T13:58:43;22.83;;;12.60;;
4835;SDS011;66719;51.226;6.902;2023-04-16T14:01:09;24.00;;;13.33;;
4835;SDS011;66719;51.226;6.902;2023-04-16T14:03:36;26.27;;;12.90;;
4835;SDS011;66719;51.226;6.902;2023-04-16T14:06:04;28.60;;;13.57;;
4835;SDS011;66719;51.226;6.902;2023-04-16T14:08:30;22.67;;;13.23;;
4835;SDS011;66719;51.226;6.902;2023-04-16T14:10:57;27.13;;;13.30;;
4835;SDS011;66719;51.226;6.902;2023-04-16T14:13:24;23.43;;;13.43;;
4835;SDS011;66719;51.226;6.902;2023-04-16T14:15:53;22.27;;;13.70;;
4835;SDS011;66719;51.226;6.902;2023-04-16T14:18:20;24.90;;;13.93;;
4835;SDS011;66719;51.226;6.902;2023-04-16T14:20:47;24.23;;;14.50;;
4835;SDS011;66719;51.226;6.902;2023-04-16T14:23:13;23.53;;;14.50;;
4835;SDS011;66719;51.226;6.902;2023-04-16T14:25:40;27.93;;;13.60;;
4835;SDS011;66719;51.226;6.902;2023-04-16T14:28:06;29.07;;;14.10;;
4835;SDS011;66719;51.226;6.902;2023-04-16T14:30:34;23.67;;;13.70;;
4835;SDS011;66719;51.226;6.902;2023-04-16T14:33:01;24.93;;;13.13;;
4835;SDS011;66719;51.226;6.902;2023-04-16T14:35:30;26.10;;;14.20;;
4835;SDS011;66719;51.226;6.902;2023-04-16T14:37:56;27.60;;;13.53;;
4835;SDS011;66719;51.226;6.902;2023-04-16T14:40:23;23.13;;;13.50;;
4835;SDS011;66719;51.226;6.902;2023-04-16T14:42:49;26.83;;;13.37;;
4835;SDS011;66719;51.226;6.902;2023-04-16T14:45:16;23.47;;;13.30;;
4835;SDS011;66719;51.226;6.902;2023-04-16T14:47:42;20.10;;;12.00;;